Time;durP1;ratioP1;P1;durP2;ratioP2;P2;SDS_P1;SDS_P2;PMS_P1;PMS_P2;Temp;Humidity;BMP_temperature;BMP_pressure;BME280_temperature;BME280_humidity;BME280_pressure;Samples;Min_cycle;Max_cycle;Signal;HPM_P1;HPM_P2
2023/09/20 00:01:42;;;;;;;6.93;3.47;;;20.20;75.50;;;;;;5054580;28;20100;-67
2023/09/20 00:04:10;;;;;;;6.55;3.60;;;20.20;75.50;;;;;;5054651;28;20390;-67
2023/09/20 00:06:37;;;;;;;8.20;3.70;;;20.00;75.70;;;;;;5054545;28;20029;-69
2023/09/20 00:09:04;;;;;;;6.18;3.28;;;19.90;75.80;;;;;;5054450;28;20490;-68
2023/09/20 00:11:30;;;;;;;5.97;3.30;;;19.90;75.90;;;;;;5054506;28;20036;-68
2023/09/20 00:13:58;;;;;;;9.32;3.67;;;19.80;76.10;;;;;;5054257;28;20467;-68
2023/09/20 00:16:24;;;;;;;4.88;3.20;;;19.70;76.10;;;;;;5056794;28;20029;-68
2023/09/20 00:18:50;;;;;;;9.75;4.45;;;19.70;76.20;;;;;;5058281;28;20024;-68
2023/09/20 00:21:16;;;;;;;9.35;3.53;;;19.60;76.30;;;;;;5041049;28;20040;-68
2023/09/20 00:23:42;;;;;;;6.38;3.42;;;19.50;76.40;;;;;;5058221;28;20025;-67
2023/09/20 00:26:10;;;;;;;5.82;3.40;;;19.50;76.50;;;;;;5058092;28;20029;-68
2023/09/20 00:28:38;;;;;;;6.70;3.30;;;19.40;76.70;;;;;;5058363;28;20045;-68
2023/09/20 00:31:08;;;;;;;4.80;3.00;;;19.40;76.80;;;;;;5058209;28;20108;-68
2023/09/20 00:33:36;;;;;;;6.05;3.05;;;19.30;77.00;;;;;;5058666;28;20107;-67
2023/09/20 00:36:05;;;;;;;7.60;4.05;;;19.30;77.00;;;;;;5058693;28;20100;-67
2023/09/20 00:38:35;;;;;;;5.68;3.20;;;19.20;77.10;;;;;;5057966;28;20048;-68
2023/09/20 00:41:08;;;;;;;6.00;3.47;;;19.20;77.20;;;;;;5057809;28;20439;-67
2023/09/20 00:43:34;;;;;;;7.43;3.33;;;19.10;77.20;;;;;;5040802;28;20099;-68
2023/09/20 00:46:00;;;;;;;8.60;3.22;;;19.10;77.30;;;;;;5058323;28;20088;-68
2023/09/20 00:48:29;;;;;;;11.98;3.97;;;19.10;77.30;;;;;;5057741;28;20033;-68
2023/09/20 00:50:56;;;;;;;5.68;3.30;;;19.10;77.40;;;;;;5040841;28;20029;-68
2023/09/20 00:53:22;;;;;;;8.52;4.00;;;19.10;77.40;;;;;;5057806;28;20048;-68
2023/09/20 00:55:49;;;;;;;6.95;3.65;;;19.00;77.40;;;;;;5057572;28;20358;-67
2023/09/20 00:58:19;;;;;;;6.93;4.15;;;19.00;77.60;;;;;;5057494;28;20037;-68
2023/09/20 01:00:46;;;;;;;8.85;4.53;;;18.90;77.70;;;;;;5040571;28;20013;-68
2023/09/20 01:03:17;;;;;;;6.88;3.80;;;18.90;77.80;;;;;;5057388;28;20063;-68
2023/09/20 01:05:47;;;;;;;7.97;3.42;;;18.90;77.80;;;;;;5040791;28;20022;-68
2023/09/20 01:08:13;;;;;;;10.02;4.35;;;18.90;77.80;;;;;;5057337;28;20112;-68
2023/09/20 01:10:40;;;;;;;7.25;3.67;;;18.80;77.80;;;;;;5057802;28;20031;-68
2023/09/20 01:13:09;;;;;;;7.05;3.53;;;18.80;77.80;;;;;;5057040;28;20037;-68
2023/09/20 01:15:36;;;;;;;7.35;3.67;;;18.80;77.90;;;;;;5057508;28;20028;-67
2023/09/20 01:18:04;;;;;;;6.18;3.60;;;18.70;78.00;;;;;;5057191;28;20104;-68
2023/09/20 01:20:37;;;;;;;9.43;3.67;;;18.70;78.10;;;;;;5057320;28;20021;-68
2023/09/20 01:23:05;;;;;;;8.32;3.70;;;18.70;78.20;;;;;;5057354;28;20029;-68
2023/09/20 01:25:36;;;;;;;6.07;3.47;;;18.80;78.10;;;;;;5056980;28;20071;-68
2023/09/20 01:28:09;;;;;;;5.53;3.30;;;18.80;78.10;;;;;;5057803;28;20033;-68
2023/09/20 01:30:41;;;;;;;8.50;3.40;;;18.80;78.00;;;;;;5056790;28;20126;-68
2023/09/20 01:33:09;;;;;;;7.60;4.03;;;18.70;77.90;;;;;;5057129;28;20029;-67
2023/09/20 01:35:41;;;;;;;4.57;3.30;;;18.70;78.00;;;;;;5057172;28;20068;-68
2023/09/20 01:38:10;;;;;;;7.80;3.80;;;18.70;78.10;;;;;;5056685;28;20074;-67
2023/09/20 01:40:41;;;;;;;5.97;3.55;;;18.60;78.20;;;;;;5056623;28;20060;-67
2023/09/20 01:43:07;;;;;;;7.50;3.95;;;18.60;78.20;;;;;;5056947;28;20465;-67
2023/09/20 01:45:35;;;;;;;7.50;4.03;;;18.60;78.30;;;;;;5057194;28;20033;-68
2023/09/20 01:48:05;;;;;;;6.30;3.67;;;18.60;78.20;;;;;;5056552;28;20086;-68
2023/09/20 01:50:31;;;;;;;7.18;4.03;;;18.50;78.20;;;;;;5039545;28;20025;-68
2023/09/20 01:52:59;;;;;;;7.00;4.20;;;18.50;78.30;;;;;;5056516;28;20024;-67
2023/09/20 01:55:27;;;;;;;7.25;3.70;;;18.50;78.40;;;;;;5056403;28;20083;-68
2023/09/20 01:57:59;;;;;;;8.77;3.88;;;18.50;78.30;;;;;;5056400;28;20082;-67
2023/09/20 02:00:33;;;;;;;9.68;4.10;;;18.40;78.40;;;;;;5056544;28;20233;-69
2023/09/20 02:03:05;;;;;;;6.50;3.90;;;18.40;78.60;;;;;;5056597;28;20021;-68
2023/09/20 02:05:38;;;;;;;7.05;3.75;;;18.40;78.60;;;;;;5056243;28;20025;-68
2023/09/20 02:08:05;;;;;;;7.00;3.65;;;18.40;78.60;;;;;;5056228;28;20343;-68
2023/09/20 02:10:37;;;;;;;6.47;3.60;;;18.40;78.50;;;;;;5056084;28;20451;-68
2023/09/20 02:13:04;;;;;;;8.00;3.67;;;18.40;78.40;;;;;;5055583;28;20469;-68
2023/09/20 02:15:34;;;;;;;8.43;3.90;;;18.40;78.40;;;;;;5056254;28;20068;-67
2023/09/20 02:18:04;;;;;;;7.00;3.75;;;18.40;78.30;;;;;;5055961;28;20029;-68
2023/09/20 02:20:39;;;;;;;9.88;4.43;;;18.40;78.40;;;;;;5056130;28;20036;-68
2023/09/20 02:23:07;;;;;;;5.80;3.55;;;18.40;78.30;;;;;;5056507;28;20025;-68
2023/09/20 02:25:35;;;;;;;5.90;3.40;;;18.30;78.40;;;;;;5055822;28;20024;-68
2023/09/20 02:28:11;;;;;;;6.75;3.28;;;18.30;78.50;;;;;;5055773;28;20029;-68
2023/09/20 02:30:37;;;;;;;6.50;3.38;;;18.20;78.50;;;;;;5055993;28;20029;-68
2023/09/20 02:33:14;;;;;;;5.00;3.20;;;18.30;78.60;;;;;;5055656;28;20039;-68
2023/09/20 02:35:40;;;;;;;6.63;3.50;;;18.30;78.60;;;;;;5055613;28;20033;-68
2023/09/20 02:38:09;;;;;;;8.35;4.15;;;18.20;78.60;;;;;;5055616;28;20025;-67
2023/09/20 02:40:46;;;;;;;7.80;3.90;;;18.20;78.70;;;;;;5055639;28;20024;-68
2023/09/20 02:43:16;;;;;;;6.32;3.55;;;18.20;78.60;;;;;;5055565;28;20024;-67
2023/09/20 02:45:54;;;;;;;7.45;3.90;;;18.20;78.60;;;;;;5055769;28;20029;-68
2023/09/20 02:48:21;;;;;;;8.80;3.42;;;18.20;78.60;;;;;;5056063;28;20313;-68
2023/09/20 02:50:46;;;;;;;11.57;4.78;;;18.20;78.60;;;;;;5055418;28;20021;-68
2023/09/20 02:53:13;;;;;;;7.57;3.60;;;18.20;78.60;;;;;;5055298;28;20033;-68
2023/09/20 02:55:40;;;;;;;8.80;3.50;;;18.10;78.70;;;;;;5055438;28;20017;-68
2023/09/20 02:58:07;;;;;;;8.40;4.30;;;18.10;78.80;;;;;;5055621;28;20029;-68
2023/09/20 03:00:34;;;;;;;10.57;3.92;;;18.10;78.80;;;;;;5055521;28;20454;-67
2023/09/20 03:03:02;;;;;;;6.28;3.53;;;18.00;78.90;;;;;;5055591;28;20021;-67
2023/09/20 03:05:29;;;;;;;5.47;3.22;;;18.00;79.00;;;;;;5055256;28;20028;-68
2023/09/20 03:07:56;;;;;;;5.38;3.50;;;18.00;79.00;;;;;;5037877;28;20025;-68
2023/09/20 03:10:23;;;;;;;9.70;3.28;;;18.00;79.00;;;;;;5055430;28;20029;-67
2023/09/20 03:12:51;;;;;;;5.50;3.20;;;18.00;79.00;;;;;;5055219;28;20075;-68
2023/09/20 03:15:22;;;;;;;6.82;3.30;;;18.10;79.10;;;;;;5055668;28;20402;-67
2023/09/20 03:17:53;;;;;;;5.30;3.35;;;18.10;79.00;;;;;;5055092;28;20032;-68
2023/09/20 03:20:24;;;;;;;6.93;4.00;;;18.10;79.10;;;;;;5037498;28;20536;-69
2023/09/20 03:22:55;;;;;;;8.18;4.10;;;18.10;79.10;;;;;;5055357;28;20048;-68
2023/09/20 03:25:25;;;;;;;8.20;3.58;;;18.10;78.90;;;;;;5055588;28;20355;-67
2023/09/20 03:27:53;;;;;;;7.80;3.83;;;18.00;79.00;;;;;;5054951;28;20112;-68
2023/09/20 03:30:22;;;;;;;8.13;3.85;;;18.00;79.30;;;;;;5055130;28;20036;-69
2023/09/20 03:32:50;;;;;;;6.85;3.45;;;18.00;78.90;;;;;;5055002;28;20031;-67
2023/09/20 03:35:19;;;;;;;8.95;3.70;;;18.00;78.90;;;;;;5055158;28;20111;-68
2023/09/20 03:37:46;;;;;;;9.02;4.05;;;18.00;79.00;;;;;;5054948;28;20032;-70
2023/09/20 03:40:18;;;;;;;5.15;3.50;;;18.00;79.20;;;;;;5054813;28;20032;-70
2023/09/20 03:42:48;;;;;;;5.63;3.30;;;18.00;79.20;;;;;;5054918;28;20455;-69
2023/09/20 03:45:16;;;;;;;4.88;2.85;;;18.00;79.10;;;;;;5054896;28;20036;-69
2023/09/20 03:47:53;;;;;;;7.30;3.42;;;18.00;79.20;;;;;;5055095;28;20025;-67
2023/09/20 03:50:19;;;;;;;6.47;3.10;;;18.00;79.10;;;;;;5055399;28;20090;-67
2023/09/20 03:52:46;;;;;;;6.18;3.60;;;18.00;79.20;;;;;;5058808;28;20066;-67
2023/09/20 03:55:12;;;;;;;7.10;3.15;;;18.00;79.20;;;;;;5058699;28;20033;-68
2023/09/20 03:57:38;;;;;;;8.48;3.40;;;18.00;79.10;;;;;;5059255;28;20075;-68
2023/09/20 04:00:18;;;;;;;6.90;3.45;;;18.00;79.00;;;;;;5058538;28;20028;-67
2023/09/20 04:02:45;;;;;;;5.72;3.30;;;18.00;79.00;;;;;;5058646;28;20025;-68
2023/09/20 04:05:15;;;;;;;5.80;3.00;;;18.00;79.00;;;;;;5058486;28;20029;-67
2023/09/20 04:07:44;;;;;;;7.40;3.30;;;18.00;79.00;;;;;;5058770;28;20079;-68
2023/09/20 04:10:15;;;;;;;4.00;3.05;;;18.00;79.00;;;;;;5058331;28;20067;-67
2023/09/20 04:12:41;;;;;;;3.97;3.00;;;18.00;79.00;;;;;;5058403;28;20463;-68
2023/09/20 04:15:10;;;;;;;8.27;3.28;;;17.90;79.10;;;;;;5058129;28;20129;-68
2023/09/20 04:17:36;;;;;;;8.68;3.72;;;17.90;79.10;;;;;;5058296;28;20112;-67
2023/09/20 04:20:07;;;;;;;7.03;3.58;;;17.90;79.10;;;;;;5058163;28;20378;-68
2023/09/20 04:22:34;;;;;;;8.93;3.80;;;17.90;79.00;;;;;;5058242;28;20053;-68
2023/09/20 04:25:00;;;;;;;8.85;3.65;;;17.90;79.00;;;;;;5058139;28;20035;-68
2023/09/20 04:27:28;;;;;;;6.05;3.03;;;17.80;79.10;;;;;;5058191;28;20017;-66
2023/09/20 04:29:54;;;;;;;5.10;3.13;;;17.80;79.20;;;;;;5058080;28;20043;-67
2023/09/20 04:32:20;;;;;;;4.70;2.92;;;17.70;79.40;;;;;;5058085;28;20021;-67
2023/09/20 04:34:46;;;;;;;5.07;3.00;;;17.80;79.40;;;;;;5057985;28;20108;-67
2023/09/20 04:37:16;;;;;;;6.93;4.30;;;17.80;79.40;;;;;;5058269;28;20029;-67
2023/09/20 04:39:42;;;;;;;6.97;3.28;;;17.80;79.40;;;;;;5058403;28;20025;-68
2023/09/20 04:42:12;;;;;;;5.93;3.40;;;17.80;79.40;;;;;;5058349;28;20028;-68
2023/09/20 04:44:38;;;;;;;7.88;3.35;;;17.80;79.40;;;;;;5057822;28;20040;-70
2023/09/20 04:47:04;;;;;;;7.53;3.42;;;17.80;79.50;;;;;;5058028;28;20114;-68
2023/09/20 04:49:30;;;;;;;7.40;3.20;;;17.90;79.40;;;;;;5058003;28;20102;-67
2023/09/20 04:52:00;;;;;;;6.45;3.70;;;17.90;79.40;;;;;;5058267;28;20036;-68
2023/09/20 04:54:27;;;;;;;5.50;3.10;;;17.90;79.30;;;;;;5057875;28;20076;-67
2023/09/20 04:56:53;;;;;;;5.50;3.30;;;18.00;79.20;;;;;;5057938;28;20442;-67
2023/09/20 04:59:19;;;;;;;6.10;3.08;;;18.00;79.20;;;;;;5040115;28;20480;-68
2023/09/20 05:01:46;;;;;;;5.78;3.30;;;18.10;79.20;;;;;;5057516;28;20431;-67
2023/09/20 05:04:13;;;;;;;5.45;2.95;;;18.10;79.00;;;;;;5057453;28;20063;-68
2023/09/20 05:06:42;;;;;;;5.13;3.20;;;18.20;78.90;;;;;;5057411;28;20116;-68
2023/09/20 05:09:09;;;;;;;3.58;2.78;;;18.20;78.80;;;;;;5057601;28;20017;-67
2023/09/20 05:11:35;;;;;;;8.18;3.40;;;18.20;78.70;;;;;;5040278;28;20028;-70
2023/09/20 05:14:01;;;;;;;6.85;3.22;;;18.20;78.60;;;;;;5057414;28;20041;-69
2023/09/20 05:16:27;;;;;;;9.43;3.38;;;18.20;78.60;;;;;;5057263;28;20017;-68
2023/09/20 05:18:53;;;;;;;6.57;3.40;;;18.30;78.60;;;;;;5057288;28;20056;-69
2023/09/20 05:21:20;;;;;;;7.40;3.70;;;18.30;78.50;;;;;;5039615;28;20048;-69
2023/09/20 05:23:47;;;;;;;8.05;4.32;;;18.40;78.30;;;;;;5057090;28;20386;-67
2023/09/20 05:26:13;;;;;;;7.07;3.90;;;18.40;78.20;;;;;;5057018;28;20033;-67
2023/09/20 05:28:39;;;;;;;7.43;4.00;;;18.60;78.10;;;;;;5057006;28;20448;-68
2023/09/20 05:31:05;;;;;;;8.75;4.05;;;19.00;77.60;;;;;;5056921;28;20030;-67
2023/09/20 05:33:32;;;;;;;6.70;3.60;;;19.60;76.60;;;;;;5056895;28;20028;-68
2023/09/20 05:35:58;;;;;;;7.15;4.03;;;20.30;75.80;;;;;;5057166;28;20025;-68
2023/09/20 05:38:25;;;;;;;32.72;4.75;;;21.00;74.00;;;;;;5056840;28;20021;-71
2023/09/20 05:40:52;;;;;;;7.15;3.60;;;21.80;72.60;;;;;;5039270;28;20021;-67
2023/09/20 05:43:18;;;;;;;8.23;3.90;;;22.60;71.00;;;;;;5056789;28;20024;-67
2023/09/20 05:45:44;;;;;;;8.18;3.15;;;23.40;69.50;;;;;;5056734;28;20456;-67
2023/09/20 05:48:10;;;;;;;8.00;3.28;;;24.30;67.70;;;;;;5056902;28;20037;-68
2023/09/20 05:50:37;;;;;;;8.13;3.30;;;25.00;65.30;;;;;;5056732;28;20060;-66
2023/09/20 05:53:06;;;;;;;7.63;3.28;;;25.50;64.80;;;;;;5056832;28;20439;-66
2023/09/20 05:55:36;;;;;;;5.43;3.20;;;26.40;63.40;;;;;;5056474;28;20021;-66
2023/09/20 05:58:02;;;;;;;5.57;3.20;;;27.30;61.40;;;;;;5039511;28;20427;-67
2023/09/20 06:00:29;;;;;;;6.97;3.05;;;28.20;59.80;;;;;;5056611;28;20028;-66
2023/09/20 06:02:59;;;;;;;7.35;2.83;;;29.00;58.00;;;;;;5056349;28;20028;-67
2023/09/20 06:05:26;;;;;;;6.57;2.80;;;29.70;56.30;;;;;;5039803;28;20048;-67
2023/09/20 06:07:53;;;;;;;7.32;2.80;;;29.90;55.10;;;;;;5056563;28;20028;-66
2023/09/20 06:10:22;;;;;;;4.40;2.90;;;29.60;54.90;;;;;;5056150;28;20382;-67
2023/09/20 06:12:48;;;;;;;6.88;3.08;;;29.20;55.30;;;;;;5055427;28;20021;-67
2023/09/20 06:15:14;;;;;;;6.43;2.72;;;28.90;55.40;;;;;;5055633;28;20048;-67
2023/09/20 06:17:55;;;;;;;8.50;2.72;;;28.70;55.50;;;;;;5056622;28;20017;-66
2023/09/20 06:20:25;;;;;;;6.13;2.88;;;28.40;55.60;;;;;;5056291;28;20040;-67
2023/09/20 06:22:53;;;;;;;6.05;2.72;;;28.10;56.00;;;;;;5055963;28;20044;-67
2023/09/20 06:25:22;;;;;;;5.95;3.00;;;27.80;56.50;;;;;;5055852;28;20032;-66
2023/09/20 06:27:53;;;;;;;4.78;2.70;;;27.40;57.20;;;;;;5055856;28;20167;-67
2023/09/20 06:30:24;;;;;;;5.72;2.75;;;27.20;57.60;;;;;;5056045;28;20102;-66
2023/09/20 06:32:55;;;;;;;8.73;2.88;;;27.00;57.90;;;;;;5055758;28;20119;-67
2023/09/20 06:35:22;;;;;;;8.15;2.90;;;26.60;58.50;;;;;;5055917;28;20029;-67
2023/09/20 06:37:48;;;;;;;4.63;2.75;;;26.20;59.30;;;;;;5055616;28;20029;-69
2023/09/20 06:42:46;;;;;;;5.75;3.15;;;25.80;60.70;;;;;;5056303;28;20033;-67
2023/09/20 06:45:12;;;;;;;6.18;3.50;;;26.00;60.90;;;;;;5055519;28;20512;-67
2023/09/20 06:47:40;;;;;;;10.13;3.60;;;26.50;60.30;;;;;;5055784;28;20033;-67
2023/09/20 06:50:07;;;;;;;8.15;3.53;;;26.90;59.60;;;;;;5037943;28;20516;-67
2023/09/20 06:52:33;;;;;;;6.95;3.45;;;27.00;59.00;;;;;;5056514;28;20041;-68
2023/09/20 06:54:59;;;;;;;5.15;2.90;;;27.40;58.50;;;;;;5055840;28;20096;-67
2023/09/20 06:57:25;;;;;;;6.63;3.30;;;28.00;56.80;;;;;;5055600;28;20025;-67
2023/09/20 06:59:54;;;;;;;8.20;3.20;;;28.10;55.50;;;;;;5055743;28;20021;-67
2023/09/20 07:02:20;;;;;;;7.43;3.30;;;27.90;55.40;;;;;;5055862;28;20021;-67
2023/09/20 07:04:48;;;;;;;8.77;3.30;;;27.90;55.40;;;;;;5055616;28;20021;-68
2023/09/20 07:07:14;;;;;;;7.65;2.90;;;28.20;55.30;;;;;;5055275;28;20082;-67
2023/09/20 07:09:40;;;;;;;9.38;3.13;;;28.60;54.20;;;;;;5055776;28;20112;-67
2023/09/20 07:12:07;;;;;;;6.75;2.90;;;28.90;53.60;;;;;;5055518;28;20033;-66
2023/09/20 07:14:34;;;;;;;10.10;2.95;;;29.20;53.50;;;;;;5054979;28;20037;-68
2023/09/20 07:17:00;;;;;;;7.30;3.20;;;29.90;52.70;;;;;;5055502;28;20025;-67
2023/09/20 07:19:29;;;;;;;5.75;3.00;;;30.50;51.60;;;;;;5055164;28;20120;-67
2023/09/20 07:21:56;;;;;;;7.35;2.60;;;30.90;49.20;;;;;;5055459;28;20426;-68
2023/09/20 07:24:26;;;;;;;6.38;2.67;;;31.20;47.80;;;;;;5037204;28;20155;-68
2023/09/20 07:26:58;;;;;;;9.52;2.72;;;31.20;47.80;;;;;;5055048;28;20336;-67
2023/09/20 07:29:24;;;;;;;8.53;2.73;;;30.70;47.30;;;;;;5055319;28;20103;-67
2023/09/20 07:31:50;;;;;;;6.15;2.40;;;29.90;47.80;;;;;;5055291;28;20025;-67
2023/09/20 07:34:19;;;;;;;4.78;2.90;;;29.10;49.20;;;;;;5054965;28;20037;-68
2023/09/20 07:36:54;;;;;;;7.07;2.90;;;28.50;50.80;;;;;;5054928;28;20040;-67
2023/09/20 07:39:21;;;;;;;8.30;3.20;;;28.00;51.60;;;;;;5055070;28;20389;-68
2023/09/20 07:41:50;;;;;;;6.68;2.85;;;27.50;52.50;;;;;;5055756;28;20029;-67
2023/09/20 07:44:30;;;;;;;6.28;2.92;;;27.40;53.30;;;;;;5055256;28;20033;-68
2023/09/20 07:47:00;;;;;;;5.88;2.78;;;27.30;54.10;;;;;;5055229;28;20059;-67
2023/09/20 07:49:26;;;;;;;7.57;3.40;;;27.20;54.60;;;;;;5055102;28;20091;-67
2023/09/20 07:51:57;;;;;;;6.93;3.00;;;27.10;54.60;;;;;;5054862;28;20025;-67
2023/09/20 07:54:23;;;;;;;8.48;3.08;;;26.90;55.10;;;;;;5055035;28;20075;-68
2023/09/20 07:56:52;;;;;;;7.90;3.30;;;26.80;55.80;;;;;;5055092;28;20442;-67
2023/09/20 07:59:26;;;;;;;7.90;3.70;;;26.80;56.20;;;;;;5054682;28;20351;-67
2023/09/20 08:01:52;;;;;;;4.57;2.58;;;27.00;56.30;;;;;;5055086;28;20025;-68
2023/09/20 08:04:19;;;;;;;7.38;3.22;;;26.90;55.80;;;;;;5054684;28;20059;-67
2023/09/20 08:06:46;;;;;;;5.78;2.97;;;27.10;56.20;;;;;;5055307;28;20029;-67
2023/09/20 08:09:12;;;;;;;7.75;3.05;;;27.40;55.90;;;;;;5054611;28;20116;-67
2023/09/20 08:11:38;;;;;;;7.43;3.00;;;27.50;54.50;;;;;;5054645;28;20028;-67
2023/09/20 08:14:04;;;;;;;6.32;2.75;;;27.50;54.10;;;;;;5054550;28;20048;-67
2023/09/20 08:16:34;;;;;;;4.65;2.50;;;27.40;54.00;;;;;;5054652;28;20028;-67
2023/09/20 08:19:36;;;;;;;5.78;2.40;;;27.30;53.60;;;;;;5054550;28;20067;-67
2023/09/20 08:21:54;;;;;;;3.58;2.50;;;27.10;53.10;;;;;;5051498;28;20045;-67
2023/09/20 09:00:27;;;;;;;6.03;2.47;;;26.60;54.50;;;;;;5058075;28;20051;-67
2023/09/20 09:02:57;;;;;;;4.28;2.03;;;26.70;53.80;;;;;;5057574;28;20033;-67
2023/09/20 09:05:27;;;;;;;5.53;2.70;;;26.60;54.10;;;;;;5057798;28;20151;-67
2023/09/20 09:07:54;;;;;;;5.03;2.20;;;26.70;54.00;;;;;;5057760;28;20029;-68
2023/09/20 09:10:21;;;;;;;4.50;2.38;;;26.60;54.30;;;;;;5057376;28;20103;-67
2023/09/20 09:12:48;;;;;;;4.70;2.53;;;26.60;54.50;;;;;;5057965;28;20073;-67
2023/09/20 09:15:16;;;;;;;6.80;2.50;;;26.60;54.50;;;;;;5056292;28;20114;-67
2023/09/20 09:17:44;;;;;;;4.68;2.25;;;26.70;54.60;;;;;;5057587;28;20021;-67
2023/09/20 09:20:18;;;;;;;5.00;2.75;;;26.80;54.20;;;;;;5057498;28;20021;-67
2023/09/20 09:22:45;;;;;;;5.10;2.42;;;26.80;54.00;;;;;;5057179;28;20029;-67
2023/09/20 09:25:19;;;;;;;7.50;2.53;;;26.90;53.90;;;;;;5057423;28;20355;-67
2023/09/20 09:27:45;;;;;;;4.50;2.10;;;27.00;54.00;;;;;;5057422;28;20028;-67
2023/09/20 09:32:51;;;;;;;5.32;2.70;;;27.20;53.80;;;;;;5162979;23;20053;-67
2023/09/20 09:35:20;;;;;;;7.38;2.92;;;27.40;53.10;;;;;;5037187;28;20029;-67
2023/09/20 09:37:46;;;;;;;5.90;2.72;;;27.50;52.50;;;;;;5037078;28;20033;-67
2023/09/20 09:40:14;;;;;;;4.85;2.72;;;27.60;52.60;;;;;;5036991;28;20025;-66
2023/09/20 09:42:43;;;;;;;5.20;2.70;;;27.60;52.40;;;;;;5053792;28;20017;-67
2023/09/20 09:45:09;;;;;;;5.57;2.60;;;27.70;52.70;;;;;;5039660;28;20035;-66
2023/09/20 09:47:37;;;;;;;3.50;2.50;;;27.80;52.60;;;;;;5039153;28;20074;-67
2023/09/20 09:50:06;;;;;;;6.88;2.88;;;27.90;52.60;;;;;;5057237;28;20031;-67
2023/09/20 09:52:34;;;;;;;5.43;3.05;;;28.10;52.30;;;;;;5056791;28;20132;-66
2023/09/20 09:55:00;;;;;;;8.23;2.90;;;28.10;52.30;;;;;;5056821;28;20029;-67
2023/09/20 09:57:26;;;;;;;6.53;2.90;;;28.20;52.30;;;;;;5056602;28;20468;-67
2023/09/20 09:59:54;;;;;;;4.57;2.60;;;28.20;51.90;;;;;;5056805;28;20067;-67
2023/09/20 10:02:24;;;;;;;4.47;2.70;;;28.20;52.20;;;;;;5056430;28;20492;-67
2023/09/20 10:05:03;;;;;;;7.45;3.05;;;28.30;51.70;;;;;;5056433;28;20060;-66
2023/09/20 10:07:35;;;;;;;11.07;3.03;;;28.20;51.30;;;;;;5056676;28;20037;-66
2023/09/20 10:10:12;;;;;;;5.23;2.87;;;28.20;52.00;;;;;;5038913;28;20104;-66
2023/09/20 10:12:45;;;;;;;6.22;2.92;;;28.20;52.00;;;;;;5056530;28;20032;-66
2023/09/20 10:15:14;;;;;;;9.05;3.55;;;28.30;52.10;;;;;;5056041;28;20339;-66
2023/09/20 10:17:56;;;;;;;5.85;3.08;;;28.30;51.80;;;;;;5038630;28;20036;-66
2023/09/20 10:20:22;;;;;;;6.88;3.40;;;28.20;52.20;;;;;;5056188;28;20021;-67
2023/09/20 10:22:51;;;;;;;6.72;2.65;;;28.30;52.20;;;;;;5056295;28;20017;-67
2023/09/20 10:25:32;;;;;;;7.40;2.75;;;28.40;52.20;;;;;;5056026;28;20040;-66
2023/09/20 10:28:16;;;;;;;10.27;3.25;;;28.50;52.40;;;;;;5056562;28;20033;-66
2023/09/20 10:31:02;;;;;;;6.70;3.33;;;28.70;52.00;;;;;;5055860;28;20513;-67
2023/09/20 10:33:46;;;;;;;5.93;3.08;;;28.60;51.80;;;;;;5056244;28;20045;-67
2023/09/20 10:36:22;;;;;;;7.13;3.08;;;28.70;51.70;;;;;;5055828;28;20473;-66
2023/09/20 10:38:48;;;;;;;7.28;2.83;;;28.60;51.90;;;;;;5022185;28;20029;-67
2023/09/20 10:41:17;;;;;;;7.78;3.22;;;28.60;52.00;;;;;;5055764;28;20024;-66
2023/09/20 10:43:48;;;;;;;6.93;3.33;;;28.60;52.30;;;;;;5056475;28;20021;-67
2023/09/20 10:46:19;;;;;;;7.78;3.25;;;28.60;52.10;;;;;;5055697;28;20070;-66
2023/09/20 10:48:50;;;;;;;7.53;3.28;;;28.70;51.90;;;;;;5055602;28;20032;-67
2023/09/20 10:51:48;;;;;;;8.20;3.30;;;28.60;52.10;;;;;;5055984;28;20033;-67
2023/09/20 10:54:20;;;;;;;9.10;3.47;;;28.70;52.30;;;;;;5038504;28;20067;-67
2023/09/20 10:56:54;;;;;;;6.57;3.20;;;28.80;52.30;;;;;;5055550;28;20025;-67
2023/09/20 10:59:21;;;;;;;9.55;3.38;;;28.80;52.20;;;;;;5055028;28;20104;-67
2023/09/20 11:01:58;;;;;;;9.05;3.67;;;28.80;52.30;;;;;;5038091;28;20025;-67
2023/09/20 11:04:25;;;;;;;12.55;4.00;;;28.80;52.10;;;;;;5055723;28;20036;-67
2023/09/20 11:06:59;;;;;;;6.93;3.25;;;28.70;52.10;;;;;;5038209;28;20082;-66
2023/09/20 11:09:33;;;;;;;7.35;3.15;;;28.60;52.50;;;;;;5055316;28;20501;-66
2023/09/20 11:12:06;;;;;;;7.50;3.05;;;28.60;52.70;;;;;;5055158;28;20041;-67
2023/09/20 11:14:37;;;;;;;6.20;3.17;;;28.60;52.40;;;;;;5037669;28;20025;-67
2023/09/20 11:17:06;;;;;;;9.05;3.10;;;28.50;52.30;;;;;;5055814;28;20052;-66
2023/09/20 11:19:38;;;;;;;5.47;2.88;;;28.40;52.60;;;;;;5055233;28;20024;-67
2023/09/20 11:22:05;;;;;;;8.73;3.13;;;28.40;52.90;;;;;;5055589;28;20021;-67
2023/09/20 11:24:32;;;;;;;8.90;3.33;;;28.40;52.70;;;;;;5055160;28;20087;-67
2023/09/20 11:26:58;;;;;;;10.85;3.30;;;28.50;52.20;;;;;;5037609;28;20070;-67
2023/09/20 11:29:25;;;;;;;10.00;3.38;;;28.50;52.30;;;;;;5055379;28;20438;-67
2023/09/20 11:31:58;;;;;;;7.90;3.17;;;28.50;52.00;;;;;;5054893;28;20064;-67
2023/09/20 11:34:28;;;;;;;8.32;3.53;;;28.50;52.30;;;;;;5038063;28;20456;-67
2023/09/20 11:37:06;;;;;;;9.77;3.28;;;28.60;52.40;;;;;;5037996;28;20553;-67
2023/09/20 11:39:34;;;;;;;7.47;3.60;;;28.70;52.00;;;;;;5054918;28;20449;-67
2023/09/20 11:42:05;;;;;;;10.52;3.65;;;28.70;51.60;;;;;;5037546;28;20063;-66
2023/09/20 11:44:37;;;;;;;7.75;3.47;;;28.80;51.50;;;;;;5054907;28;20047;-66
2023/09/20 11:47:05;;;;;;;8.85;3.65;;;28.80;51.40;;;;;;5055435;28;20047;-67
2023/09/20 11:49:32;;;;;;;8.68;3.88;;;28.80;51.50;;;;;;5055383;28;20029;-67
2023/09/20 11:52:02;;;;;;;11.80;3.70;;;28.70;51.70;;;;;;5054796;28;20447;-66
2023/09/20 11:54:36;;;;;;;9.48;3.58;;;28.70;52.00;;;;;;5055307;28;20038;-67
2023/09/20 11:57:17;;;;;;;8.57;3.35;;;28.60;51.80;;;;;;5054761;28;20033;-67
2023/09/20 11:59:44;;;;;;;6.07;2.90;;;28.60;52.10;;;;;;5055316;28;20017;-66
2023/09/20 12:02:13;;;;;;;7.57;3.00;;;28.70;52.40;;;;;;5054973;28;20021;-66
2023/09/20 12:04:39;;;;;;;10.63;3.20;;;28.90;52.10;;;;;;5054736;28;20421;-67
2023/09/20 12:07:08;;;;;;;7.82;3.10;;;29.10;51.90;;;;;;5054751;28;20025;-67
2023/09/20 12:09:36;;;;;;;7.97;3.55;;;29.20;51.60;;;;;;5054997;28;20052;-67
2023/09/20 12:12:05;;;;;;;6.68;3.40;;;29.40;51.50;;;;;;5056576;28;20039;-67
2023/09/20 12:14:37;;;;;;;11.80;3.78;;;29.40;50.70;;;;;;5058299;28;20032;-67
2023/09/20 12:17:04;;;;;;;9.93;3.58;;;29.30;50.30;;;;;;5042136;28;20025;-67
2023/09/20 12:19:30;;;;;;;11.48;4.07;;;29.30;50.40;;;;;;5058292;28;20486;-67
2023/09/20 12:22:07;;;;;;;9.48;3.40;;;29.20;50.50;;;;;;5058303;28;20087;-66
2023/09/20 12:24:38;;;;;;;8.65;3.30;;;29.10;50.30;;;;;;5058250;28;20029;-66
2023/09/20 12:27:18;;;;;;;11.55;3.65;;;29.10;50.90;;;;;;5058761;28;20053;-67
2023/09/20 12:29:46;;;;;;;6.85;3.08;;;29.10;51.00;;;;;;5058078;28;20033;-67
2023/09/20 12:32:12;;;;;;;10.27;3.80;;;29.20;51.20;;;;;;5057841;28;20041;-67
2023/09/20 12:34:38;;;;;;;9.73;3.50;;;29.30;50.80;;;;;;5058054;28;20451;-67
2023/09/20 12:37:05;;;;;;;13.73;4.35;;;29.30;50.50;;;;;;5058318;28;20029;-67
2023/09/20 12:39:31;;;;;;;10.05;4.18;;;29.40;50.10;;;;;;5057984;28;20021;-66
2023/09/20 12:41:57;;;;;;;7.47;3.78;;;29.30;49.90;;;;;;5057966;28;20029;-67
2023/09/20 12:44:23;;;;;;;9.32;3.65;;;29.30;49.80;;;;;;5057976;28;20104;-66
2023/09/20 12:46:52;;;;;;;8.73;3.50;;;29.20;49.80;;;;;;5058460;28;20051;-67
2023/09/20 12:49:19;;;;;;;9.88;3.90;;;29.10;49.50;;;;;;5058117;28;20060;-67
2023/09/20 12:51:45;;;;;;;7.63;3.20;;;28.90;50.20;;;;;;5058041;28;20029;-66
2023/09/20 12:54:11;;;;;;;10.57;3.63;;;28.80;50.40;;;;;;5040122;28;20086;-67
2023/09/20 12:56:38;;;;;;;8.32;3.33;;;28.70;50.70;;;;;;5040130;28;20110;-67
2023/09/20 12:59:04;;;;;;;6.72;3.60;;;28.60;50.70;;;;;;5057573;28;20025;-67
2023/09/20 13:01:31;;;;;;;7.00;3.35;;;28.60;50.90;;;;;;5057771;28;20021;-67
2023/09/20 13:03:58;;;;;;;6.70;3.13;;;28.60;51.20;;;;;;5057546;28;20397;-67
2023/09/20 13:06:28;;;;;;;5.20;3.03;;;28.60;51.40;;;;;;5058057;28;20037;-67
2023/09/20 13:08:55;;;;;;;8.30;3.60;;;28.70;51.30;;;;;;5057502;28;20025;-67
2023/09/20 13:11:23;;;;;;;8.32;3.20;;;28.70;51.00;;;;;;5057326;28;20025;-66
2023/09/20 13:13:50;;;;;;;9.25;3.30;;;28.70;51.10;;;;;;5057560;28;20115;-67
2023/09/20 13:16:18;;;;;;;9.77;3.78;;;28.70;51.10;;;;;;5057343;28;20064;-66
2023/09/20 13:18:44;;;;;;;6.90;3.63;;;28.60;51.20;;;;;;5057328;28;20431;-66
2023/09/20 13:21:10;;;;;;;8.25;3.40;;;28.60;51.30;;;;;;5057467;28;20056;-67
2023/09/20 13:23:43;;;;;;;6.40;3.40;;;28.60;51.50;;;;;;5056794;28;20446;-66
2023/09/20 13:26:09;;;;;;;8.65;3.85;;;28.70;51.50;;;;;;5057435;28;20074;-66
2023/09/20 13:28:35;;;;;;;10.55;3.70;;;28.80;50.90;;;;;;5039562;28;20465;-67
2023/09/20 13:31:01;;;;;;;11.90;4.10;;;28.80;50.90;;;;;;5057084;28;20025;-67
2023/09/20 13:33:27;;;;;;;9.02;3.97;;;28.90;50.90;;;;;;5057529;28;20319;-67
2023/09/20 13:35:55;;;;;;;9.50;3.80;;;28.90;50.80;;;;;;5057446;28;20104;-66